Wheatland, North Dakota
Current Conditions -  °F | °C
As of 3:53 PM on Friday 31 Oct 2014 (Local Time) from KFAR Reporting Station
Clear Clear  
Wind Chill: 35°   Ceiling: Unl
Heat Index: 41°   Visibility: 10mi
Dew Point: 20°   Wind: 10mph
Humidity: 43%   Direction: 160°SSE
Pressure: 30.47"   Gusts: NA
Location:  46.91°N, 97.34°W
Report Text: KFAR 312053Z 16009KT 10SM CLR 05/M07 A3047 RMK AO2 SLP333 T00501067 56026
Loading
Personal Weather Stations






























Interactive Weather Map
Tropical Storm Tracking
New forecast layout! Learn more

10-Day Weather Forecast

Advertisements
Track Severe Weather on mobile